createdAt,value
2018-02-27T00:02:11.065Z,17.80
2018-02-27T00:04:39.956Z,25.60
2018-02-27T00:07:08.852Z,22.48
2018-02-27T00:09:36.976Z,20.05
2018-02-27T00:12:05.113Z,23.62
2018-02-27T00:14:33.252Z,23.85
2018-02-27T00:17:02.161Z,19.10
2018-02-27T00:19:30.324Z,18.25
2018-02-27T00:21:58.505Z,22.05
2018-02-27T00:24:26.632Z,21.60
2018-02-27T00:26:54.781Z,19.00
2018-02-27T00:29:22.903Z,24.12
2018-02-27T00:31:51.041Z,24.58
2018-02-27T00:34:19.169Z,22.27
2018-02-27T00:36:47.315Z,24.30
2018-02-27T00:39:16.212Z,25.90
2018-02-27T00:41:44.359Z,26.52
2018-02-27T00:44:12.500Z,19.42
2018-02-27T00:46:40.641Z,19.73
2018-02-27T00:49:08.772Z,18.50
2018-02-27T00:51:36.894Z,14.23
2018-02-27T00:54:05.027Z,12.60
2018-02-27T00:56:33.916Z,14.82
2018-02-27T00:59:02.836Z,11.27
2018-02-27T01:01:30.964Z,10.35
2018-02-27T01:03:59.097Z,12.30
2018-02-27T01:06:27.224Z,12.25
2018-02-27T01:08:56.141Z,11.27
2018-02-27T01:11:24.248Z,17.83
2018-02-27T01:13:52.390Z,12.48
2018-02-27T01:16:20.510Z,13.75
2018-02-27T01:18:48.636Z,12.80
2018-02-27T01:21:16.761Z,15.40
2018-02-27T01:23:45.677Z,11.10
2018-02-27T01:26:13.804Z,13.95
2018-02-27T01:28:41.932Z,10.70
2018-02-27T01:31:10.073Z,10.55
2018-02-27T01:33:38.953Z,13.45
2018-02-27T01:36:07.088Z,14.60
2018-02-27T01:38:35.224Z,12.30
2018-02-27T01:41:03.361Z,16.52
2018-02-27T01:43:31.496Z,12.32
2018-02-27T01:45:59.621Z,12.32
2018-02-27T01:48:28.516Z,13.90
2018-02-27T01:51:09.175Z,11.02
2018-02-27T01:53:38.051Z,15.48
2018-02-27T01:56:06.969Z,12.70
2018-02-27T01:58:35.093Z,15.10
2018-02-27T02:01:03.241Z,15.15
2018-02-27T02:03:31.359Z,12.70
2018-02-27T02:06:00.260Z,17.17
2018-02-27T02:08:29.157Z,11.68
2018-02-27T02:10:57.285Z,14.13
2018-02-27T02:13:25.430Z,12.98
2018-02-27T02:15:53.574Z,15.30
2018-02-27T02:18:21.722Z,13.52
2018-02-27T02:20:50.631Z,14.90
2018-02-27T02:23:19.533Z,14.30
2018-02-27T02:25:47.658Z,13.65
2018-02-27T02:28:15.790Z,14.00
2018-02-27T02:30:43.994Z,19.92
2018-02-27T02:33:12.137Z,24.45
2018-02-27T02:35:40.257Z,15.18
2018-02-27T02:38:09.179Z,15.07
2018-02-27T02:40:37.307Z,14.30
2018-02-27T02:43:05.455Z,14.73
2018-02-27T02:45:33.583Z,17.90
2018-02-27T02:48:01.717Z,15.35
2018-02-27T02:50:31.368Z,12.98
2018-02-27T02:52:59.598Z,16.67
2018-02-27T02:55:27.738Z,15.20
2018-02-27T02:57:55.868Z,14.48
2018-02-27T03:00:24.880Z,15.50
2018-02-27T03:02:53.014Z,18.48
2018-02-27T03:05:21.152Z,16.23
2018-02-27T03:07:49.295Z,15.00
2018-02-27T03:10:17.436Z,15.05
2018-02-27T03:12:46.332Z,16.35
2018-02-27T03:15:15.253Z,15.40
2018-02-27T03:17:43.382Z,14.93
2018-02-27T03:20:11.524Z,14.87
2018-02-27T03:22:39.646Z,15.63
2018-02-27T03:25:08.549Z,17.15
2018-02-27T03:27:36.667Z,13.77
2018-02-27T03:30:04.816Z,17.33
2018-02-27T03:32:33.065Z,20.98
2018-02-27T03:35:01.210Z,16.90
2018-02-27T03:37:30.131Z,14.87
2018-02-27T03:39:58.248Z,15.20
2018-02-27T03:42:26.572Z,14.65
2018-02-27T03:44:54.713Z,16.50
2018-02-27T03:47:23.619Z,14.85
2018-02-27T03:49:52.508Z,15.10
2018-02-27T03:52:21.421Z,17.27
2018-02-27T03:54:49.573Z,14.80
2018-02-27T03:57:18.485Z,16.60
2018-02-27T03:59:46.622Z,15.93
2018-02-27T04:02:15.534Z,15.00
2018-02-27T04:04:43.664Z,19.02
2018-02-27T04:07:11.801Z,14.95
2018-02-27T04:09:39.937Z,16.92
2018-02-27T04:12:08.840Z,19.75
2018-02-27T04:14:36.960Z,16.23
2018-02-27T04:17:05.107Z,16.45
2018-02-27T04:19:40.065Z,13.75
2018-02-27T04:22:08.205Z,14.07
2018-02-27T04:24:36.340Z,14.27
2018-02-27T04:27:05.245Z,16.40
2018-02-27T04:29:33.436Z,13.57
2018-02-27T04:32:02.290Z,18.75
2018-02-27T04:34:31.204Z,18.55
2018-02-27T04:36:59.353Z,17.85
2018-02-27T04:39:28.265Z,14.60
2018-02-27T04:41:56.402Z,18.48
2018-02-27T04:44:24.563Z,21.48
2018-02-27T04:46:52.694Z,17.65
2018-02-27T04:49:20.845Z,23.35
2018-02-27T04:51:48.977Z,22.85
2018-02-27T04:54:17.130Z,34.70
2018-02-27T04:56:45.271Z,24.67
2018-02-27T04:59:13.532Z,24.02
2018-02-27T05:01:41.662Z,22.50
2018-02-27T05:04:09.803Z,37.30
2018-02-27T05:06:37.929Z,22.92
2018-02-27T05:09:06.849Z,24.02
2018-02-27T05:11:34.981Z,18.23
2018-02-27T05:14:03.876Z,18.40
2018-02-27T05:16:32.790Z,21.05
2018-02-27T05:19:00.945Z,17.15
2018-02-27T05:21:29.863Z,17.55
2018-02-27T05:23:58.026Z,15.25
2018-02-27T05:26:26.168Z,21.92
2018-02-27T05:28:55.083Z,19.17
2018-02-27T05:31:23.220Z,17.75
2018-02-27T05:33:51.348Z,19.35
2018-02-27T05:36:19.538Z,21.73
2018-02-27T05:38:47.666Z,20.95
2018-02-27T05:41:15.914Z,29.40
2018-02-27T05:43:44.816Z,19.35
2018-02-27T05:46:12.965Z,19.45
2018-02-27T05:48:41.116Z,23.33
2018-02-27T05:51:09.237Z,18.42
2018-02-27T05:53:37.378Z,25.25
2018-02-27T05:56:05.521Z,25.10
2018-02-27T05:58:33.653Z,25.58
2018-02-27T06:01:01.790Z,24.35
2018-02-27T06:03:29.908Z,19.87
2018-02-27T06:05:58.054Z,20.42
2018-02-27T06:08:26.948Z,20.55
2018-02-27T06:10:55.140Z,26.73
2018-02-27T06:13:23.271Z,26.98
2018-02-27T06:15:52.190Z,20.12
2018-02-27T06:18:20.332Z,29.00
2018-02-27T06:20:48.457Z,23.83
2018-02-27T06:23:16.606Z,21.80
2018-02-27T06:25:44.737Z,24.37
2018-02-27T06:28:12.881Z,26.20
2018-02-27T06:30:41.018Z,32.30
2018-02-27T06:33:09.174Z,31.52
2018-02-27T06:35:38.072Z,22.33
2018-02-27T06:38:07.361Z,25.65
2018-02-27T06:40:36.253Z,24.50
2018-02-27T06:43:05.500Z,34.08
2018-02-27T06:45:33.702Z,24.35
2018-02-27T06:48:01.848Z,29.23
2018-02-27T06:50:29.989Z,27.67
2018-02-27T06:52:58.137Z,27.70
2018-02-27T06:55:27.038Z,28.70
2018-02-27T06:57:55.172Z,27.33
2018-02-27T07:00:23.361Z,28.17
2018-02-27T07:02:51.440Z,28.17
2018-02-27T07:05:20.337Z,23.77
2018-02-27T07:07:48.505Z,28.92
2018-02-27T07:10:16.653Z,26.98
2018-02-27T07:12:44.776Z,24.60
2018-02-27T07:15:12.901Z,27.33
2018-02-27T07:17:41.817Z,31.67
2018-02-27T07:20:09.956Z,30.67
2018-02-27T07:22:38.102Z,25.25
2018-02-27T07:25:06.224Z,27.33
2018-02-27T07:27:34.368Z,26.95
2018-02-27T07:30:02.495Z,26.37
2018-02-27T07:32:30.612Z,25.27
2018-02-27T07:34:58.809Z,24.08
2018-02-27T07:37:26.945Z,25.17
2018-02-27T07:39:55.086Z,22.87
2018-02-27T07:42:23.254Z,23.45
2018-02-27T07:44:51.408Z,34.85
2018-02-27T07:47:19.536Z,28.15
2018-02-27T07:49:47.672Z,22.87
2018-02-27T07:52:15.818Z,23.15
2018-02-27T07:54:43.964Z,28.20
2018-02-27T07:57:12.086Z,28.33
2018-02-27T07:59:40.226Z,27.77
2018-02-27T08:02:08.365Z,30.23
2018-02-27T08:04:36.517Z,23.12
2018-02-27T08:07:04.635Z,27.62
2018-02-27T08:09:33.561Z,27.73
2018-02-27T08:12:02.460Z,29.37
2018-02-27T08:14:30.642Z,26.75
2018-02-27T08:16:58.793Z,25.30
2018-02-27T08:19:26.918Z,27.35
2018-02-27T08:21:55.875Z,23.20
2018-02-27T08:24:23.963Z,29.65
2018-02-27T08:26:52.114Z,28.90
2018-02-27T08:29:20.336Z,31.40
2018-02-27T08:31:48.477Z,25.83
2018-02-27T08:34:16.606Z,31.00
2018-02-27T08:36:44.861Z,29.55
2018-02-27T08:39:13.030Z,29.05
2018-02-27T08:41:41.417Z,30.55
2018-02-27T08:44:09.543Z,30.98
2018-02-27T08:46:37.703Z,29.83
2018-02-27T08:49:05.823Z,38.72
2018-02-27T08:51:33.949Z,30.33
2018-02-27T08:54:02.087Z,26.95
2018-02-27T08:56:30.233Z,32.10
2018-02-27T08:58:59.154Z,29.75
2018-02-27T09:01:27.277Z,33.13
2018-02-27T09:03:56.195Z,35.03
2018-02-27T09:06:24.326Z,33.75
2018-02-27T09:08:52.461Z,30.92
2018-02-27T09:11:20.587Z,29.92
2018-02-27T09:13:49.490Z,33.33
2018-02-27T09:16:17.618Z,28.62
2018-02-27T09:18:45.764Z,31.17
2018-02-27T09:21:13.888Z,28.35
2018-02-27T09:23:42.795Z,32.10
2018-02-27T09:26:10.931Z,31.30
2018-02-27T09:28:39.101Z,34.55
2018-02-27T09:31:07.230Z,30.73
2018-02-27T09:33:35.369Z,26.27
2018-02-27T09:36:04.262Z,27.87
2018-02-27T09:38:32.384Z,30.27
2018-02-27T09:41:00.524Z,30.52
2018-02-27T09:43:28.687Z,28.75
2018-02-27T09:45:56.818Z,34.10
2018-02-27T09:48:24.999Z,28.92
2018-02-27T09:50:53.906Z,30.02
2018-02-27T09:53:22.801Z,30.52
2018-02-27T09:55:50.945Z,31.15
2018-02-27T09:58:19.066Z,29.90
2018-02-27T10:00:47.201Z,34.97
2018-02-27T10:03:15.385Z,25.92
2018-02-27T10:05:43.762Z,33.00
2018-02-27T10:08:11.886Z,31.17
2018-02-27T10:10:40.018Z,30.75
2018-02-27T10:13:08.158Z,29.95
2018-02-27T10:15:37.069Z,33.10
2018-02-27T10:18:05.198Z,33.40
2018-02-27T10:20:33.336Z,30.62
2018-02-27T10:23:01.453Z,30.90
2018-02-27T10:25:29.661Z,32.22
2018-02-27T10:27:57.786Z,25.25
2018-02-27T10:30:26.101Z,33.03
2018-02-27T10:32:54.300Z,28.20
2018-02-27T10:35:22.437Z,28.80
2018-02-27T10:37:50.562Z,32.15
2018-02-27T10:40:18.702Z,29.25
2018-02-27T10:42:46.823Z,28.12
2018-02-27T10:45:14.959Z,27.75
2018-02-27T10:47:43.124Z,27.77
2018-02-27T10:50:11.262Z,29.37
2018-02-27T10:52:40.145Z,49.15
2018-02-27T10:55:08.276Z,33.45
2018-02-27T10:57:44.057Z,29.50
2018-02-27T11:00:12.201Z,27.30
2018-02-27T11:02:40.336Z,25.33
2018-02-27T11:05:08.488Z,27.85
2018-02-27T11:07:36.610Z,32.83
2018-02-27T11:10:04.747Z,28.95
2018-02-27T11:12:32.865Z,25.62
2018-02-27T11:15:00.986Z,32.53
2018-02-27T11:17:29.129Z,25.30
2018-02-27T11:19:58.077Z,27.98
2018-02-27T11:22:26.177Z,24.27
2018-02-27T11:24:54.301Z,32.33
2018-02-27T11:27:22.532Z,27.45
2018-02-27T11:29:50.651Z,27.27
2018-02-27T11:32:18.781Z,27.87
2018-02-27T11:34:47.662Z,29.40
2018-02-27T11:37:16.567Z,29.20
2018-02-27T11:39:44.708Z,27.95
2018-02-27T11:42:12.950Z,27.13
2018-02-27T11:44:41.071Z,25.45
2018-02-27T11:47:09.988Z,27.45
2018-02-27T11:49:38.867Z,24.70
2018-02-27T11:52:07.155Z,32.47
2018-02-27T11:54:35.283Z,25.75
2018-02-27T11:57:03.443Z,25.35
2018-02-27T11:59:32.325Z,24.23
2018-02-27T12:02:00.476Z,23.20
2018-02-27T12:04:28.601Z,28.23
2018-02-27T12:06:57.504Z,22.95
2018-02-27T12:09:25.658Z,26.37
2018-02-27T12:11:54.645Z,28.05
2018-02-27T12:14:23.661Z,32.78
2018-02-27T12:16:52.298Z,23.02
2018-02-27T12:19:20.427Z,23.27
2018-02-27T12:21:48.621Z,24.12
2018-02-27T12:24:16.761Z,20.65
2018-02-27T12:26:44.963Z,37.22
2018-02-27T12:29:13.124Z,23.05
2018-02-27T12:31:41.262Z,25.65
2018-02-27T12:34:10.201Z,20.37
2018-02-27T12:36:38.341Z,18.65
2018-02-27T12:39:06.519Z,22.25
2018-02-27T12:41:34.635Z,21.60
2018-02-27T12:44:03.347Z,20.60
2018-02-27T12:46:32.270Z,30.08
2018-02-27T12:49:00.429Z,26.20
2018-02-27T12:51:28.575Z,24.75
2018-02-27T12:53:56.699Z,22.70
2018-02-27T12:56:24.864Z,21.92
2018-02-27T12:58:53.368Z,24.10
2018-02-27T13:01:21.599Z,22.98
2018-02-27T13:03:49.735Z,20.80
2018-02-27T13:06:18.711Z,25.50
2018-02-27T13:08:46.848Z,21.10
2018-02-27T13:11:14.984Z,22.48
2018-02-27T13:13:43.106Z,20.50
2018-02-27T13:16:11.285Z,24.17
2018-02-27T13:18:39.407Z,24.70
2018-02-27T13:21:08.313Z,24.30
2018-02-27T13:23:37.179Z,24.30
2018-02-27T13:26:06.098Z,27.73
2018-02-27T13:28:34.250Z,26.30
2018-02-27T13:31:02.450Z,22.70
2018-02-27T13:33:30.525Z,25.17
2018-02-27T13:35:58.661Z,23.60
2018-02-27T13:38:26.789Z,25.08
2018-02-27T13:40:54.946Z,26.08
2018-02-27T13:43:23.116Z,26.35
2018-02-27T13:45:51.258Z,28.87
2018-02-27T13:48:19.401Z,25.70
2018-02-27T13:50:47.529Z,23.77
2018-02-27T13:53:15.689Z,22.65
2018-02-27T13:55:43.821Z,28.10
2018-02-27T13:58:12.721Z,25.85
2018-02-27T14:00:41.726Z,26.87
2018-02-27T14:03:11.021Z,25.83
2018-02-27T14:05:39.155Z,27.50
2018-02-27T14:08:07.365Z,27.87
2018-02-27T14:10:35.493Z,28.85
2018-02-27T14:13:03.649Z,27.92
2018-02-27T14:15:32.289Z,28.02
2018-02-27T14:18:00.449Z,30.30
2018-02-27T14:20:28.690Z,26.00
2018-02-27T14:22:56.841Z,23.05
2018-02-27T14:25:24.966Z,26.02
2018-02-27T14:27:53.496Z,30.73
2018-02-27T14:30:22.145Z,26.02
2018-02-27T14:32:50.293Z,24.40
2018-02-27T14:35:19.185Z,27.80
2018-02-27T14:37:48.122Z,22.95
2018-02-27T14:40:16.253Z,32.38
2018-02-27T14:42:44.398Z,30.98
2018-02-27T14:45:12.525Z,31.08
2018-02-27T14:50:15.134Z,29.33
2018-02-27T14:52:43.276Z,23.85
2018-02-27T14:55:12.165Z,29.65
2018-02-27T14:57:40.392Z,24.98
2018-02-27T15:00:08.513Z,29.45
2018-02-27T15:02:36.664Z,24.33
2018-02-27T15:05:04.780Z,28.62
2018-02-27T15:07:34.461Z,25.33
2018-02-27T15:10:02.621Z,30.65
2018-02-27T15:12:30.797Z,27.42
2018-02-27T15:14:59.067Z,27.30
2018-02-27T15:17:27.213Z,24.73
2018-02-27T15:19:56.117Z,25.05
2018-02-27T15:22:24.300Z,26.95
2018-02-27T15:24:53.174Z,23.50
2018-02-27T15:27:22.088Z,24.45
2018-02-27T15:29:50.215Z,30.20
2018-02-27T15:32:18.356Z,25.00
2018-02-27T15:34:46.477Z,26.90
2018-02-27T15:37:15.384Z,24.63
2018-02-27T15:39:43.517Z,28.52
2018-02-27T15:42:11.657Z,28.48
2018-02-27T15:44:39.792Z,25.15
2018-02-27T15:47:07.923Z,25.23
2018-02-27T15:49:36.040Z,26.50
2018-02-27T15:52:04.160Z,31.52
2018-02-27T15:54:32.307Z,31.15
2018-02-27T15:57:00.445Z,26.52
2018-02-27T15:59:29.345Z,26.52
2018-02-27T16:01:57.480Z,26.20
2018-02-27T16:04:26.386Z,28.95
2018-02-27T16:06:55.286Z,29.20
2018-02-27T16:09:23.417Z,25.12
2018-02-27T16:11:51.563Z,31.45
2018-02-27T16:14:19.914Z,49.70
2018-02-27T16:16:48.078Z,33.63
2018-02-27T16:19:16.221Z,27.20
2018-02-27T16:21:44.357Z,22.75
2018-02-27T16:24:12.481Z,25.62
2018-02-27T16:26:40.623Z,29.75
2018-02-27T16:29:08.783Z,28.38
2018-02-27T16:31:36.911Z,24.33
2018-02-27T16:34:05.048Z,26.40
2018-02-27T16:36:33.183Z,28.73
2018-02-27T16:39:01.322Z,27.17
2018-02-27T16:41:29.454Z,28.30
2018-02-27T16:43:57.616Z,25.20
2018-02-27T16:46:25.737Z,29.90
2018-02-27T16:48:53.897Z,30.58
2018-02-27T16:51:22.042Z,27.83
2018-02-27T16:53:50.177Z,28.12
2018-02-27T16:56:18.326Z,29.45
2018-02-27T16:58:46.463Z,29.77
2018-02-27T17:01:15.363Z,29.48
2018-02-27T17:03:43.509Z,29.35
2018-02-27T17:06:11.645Z,30.30
2018-02-27T17:08:39.785Z,27.90
2018-02-27T17:11:08.790Z,27.08
2018-02-27T17:13:36.985Z,28.38
2018-02-27T17:16:05.080Z,25.95
2018-02-27T17:18:33.233Z,24.77
2018-02-27T17:21:01.478Z,30.60
2018-02-27T17:23:29.601Z,28.60
2018-02-27T17:25:57.754Z,29.77
2018-02-27T17:28:25.883Z,30.95
2018-02-27T17:30:54.134Z,29.55
2018-02-27T17:33:22.435Z,28.58
2018-02-27T17:35:50.578Z,30.77
2018-02-27T17:38:18.721Z,31.27
2018-02-27T17:40:46.872Z,35.05
2018-02-27T17:43:14.992Z,34.45
2018-02-27T17:45:43.922Z,30.70
2018-02-27T17:48:12.109Z,24.27
2018-02-27T17:50:40.248Z,29.80
2018-02-27T17:53:08.414Z,31.48
2018-02-27T17:55:36.561Z,30.20
2018-02-27T17:58:04.785Z,41.67
2018-02-27T18:00:33.049Z,34.28
2018-02-27T18:03:01.198Z,32.45
2018-02-27T18:05:29.333Z,31.10
2018-02-27T18:07:57.551Z,28.52
2018-02-27T18:10:28.259Z,33.97
2018-02-27T18:12:56.363Z,40.67
2018-02-27T18:15:26.033Z,29.77
2018-02-27T18:17:54.178Z,37.47
2018-02-27T18:20:22.425Z,31.30
2018-02-27T18:22:50.574Z,33.67
2018-02-27T18:25:19.465Z,31.62
2018-02-27T18:27:47.660Z,30.27
2018-02-27T18:30:15.798Z,36.75
2018-02-27T18:32:45.839Z,30.75
2018-02-27T18:35:16.587Z,31.58
2018-02-27T18:37:44.716Z,34.95
2018-02-27T18:40:12.958Z,35.55
2018-02-27T18:42:41.101Z,30.60
2018-02-27T18:45:09.225Z,37.58
2018-02-27T18:47:37.529Z,33.42
2018-02-27T18:50:05.650Z,35.45
2018-02-27T18:52:33.821Z,28.75
2018-02-27T18:55:01.941Z,37.20
2018-02-27T18:57:30.229Z,33.63
2018-02-27T18:59:58.362Z,35.45
2018-02-27T19:02:26.571Z,30.60
2018-02-27T19:04:54.718Z,29.70
2018-02-27T19:10:54.151Z,30.60
2018-02-27T19:13:23.101Z,24.98
2018-02-27T19:15:51.232Z,29.40
2018-02-27T19:18:19.745Z,27.95
2018-02-27T19:20:47.886Z,29.83
2018-02-27T19:23:16.082Z,36.08
2018-02-27T19:25:44.229Z,28.73
2018-02-27T19:28:12.373Z,27.10
2018-02-27T19:30:42.454Z,28.48
2018-02-27T19:33:10.875Z,26.90
2018-02-27T19:35:40.587Z,35.30
2018-02-27T19:38:09.751Z,32.45
2018-02-27T19:40:39.670Z,30.33
2018-02-27T19:43:08.639Z,34.30
2018-02-27T19:45:37.202Z,33.88
2018-02-27T19:48:07.174Z,38.20
2018-02-27T19:50:37.108Z,41.30
2018-02-27T19:53:05.602Z,34.33
2018-02-27T19:55:34.429Z,32.28
2018-02-27T19:58:04.394Z,34.70
2018-02-27T20:00:34.148Z,34.90
2018-02-27T20:03:03.412Z,33.22
2018-02-27T20:05:32.155Z,25.65
2018-02-27T20:08:01.648Z,31.15
2018-02-27T20:10:30.168Z,26.40
2018-02-27T20:12:58.597Z,32.80
2018-02-27T20:15:27.363Z,26.60
2018-02-27T20:18:01.198Z,32.00
2018-02-27T20:20:29.447Z,28.27
2018-02-27T20:23:03.157Z,30.10
2018-02-27T20:25:31.462Z,29.33
2018-02-27T20:27:59.745Z,27.85
2018-02-27T20:30:27.890Z,30.12
2018-02-27T20:32:56.776Z,30.75
2018-02-27T20:35:25.037Z,33.70
2018-02-27T20:37:53.189Z,34.40
2018-02-27T20:40:21.402Z,31.87
2018-02-27T20:42:49.602Z,37.03
2018-02-27T20:45:17.753Z,35.78
2018-02-27T20:47:46.650Z,37.55
2018-02-27T20:50:15.554Z,31.15
2018-02-27T20:52:43.721Z,29.27
2018-02-27T20:55:11.873Z,33.08
2018-02-27T20:57:40.761Z,29.00
2018-02-27T21:00:09.681Z,30.98
2018-02-27T21:02:37.802Z,31.37
2018-02-27T21:05:05.951Z,35.38
2018-02-27T21:07:34.077Z,31.20
2018-02-27T21:10:02.985Z,34.13
2018-02-27T21:12:31.134Z,32.08
2018-02-27T21:15:00.040Z,32.25
2018-02-27T21:17:28.173Z,32.78
2018-02-27T21:19:57.896Z,31.02
2018-02-27T21:22:26.254Z,29.45
2018-02-27T21:24:54.402Z,31.70
2018-02-27T21:27:22.550Z,28.83
2018-02-27T21:29:50.702Z,30.27
2018-02-27T21:32:18.825Z,29.77
2018-02-27T21:34:46.953Z,30.50
2018-02-27T21:37:15.076Z,34.47
2018-02-27T21:39:43.297Z,30.52
2018-02-27T21:42:11.426Z,29.60
2018-02-27T21:44:39.641Z,32.28
2018-02-27T21:47:07.766Z,31.70
2018-02-27T21:49:35.985Z,28.92
2018-02-27T21:52:04.113Z,29.75
2018-02-27T21:54:32.259Z,28.58
2018-02-27T21:57:00.401Z,33.17
2018-02-27T21:59:28.685Z,34.72
2018-02-27T22:01:57.662Z,40.47
2018-02-27T22:04:25.797Z,38.50
2018-02-27T22:06:53.916Z,40.22
2018-02-27T22:09:22.071Z,36.47
2018-02-27T22:11:50.321Z,35.70
2018-02-27T22:14:19.233Z,29.42
2018-02-27T22:16:47.403Z,35.33
2018-02-27T22:19:15.543Z,31.73
2018-02-27T22:21:43.700Z,32.22
2018-02-27T22:24:11.806Z,34.67
2018-02-27T22:26:39.935Z,34.33
2018-02-27T22:29:08.070Z,35.60
2018-02-27T22:31:36.258Z,31.25
2018-02-27T22:34:05.120Z,37.67
2018-02-27T22:36:34.029Z,39.83
2018-02-27T22:39:02.149Z,35.50
2018-02-27T22:41:30.333Z,38.22
2018-02-27T22:43:58.461Z,38.92
2018-02-27T22:46:26.600Z,37.67
2018-02-27T22:48:55.493Z,35.97
2018-02-27T22:51:24.406Z,37.00
2018-02-27T22:53:52.525Z,37.78
2018-02-27T22:56:20.686Z,38.45
2018-02-27T22:58:48.810Z,33.45
2018-02-27T23:01:16.954Z,33.75
2018-02-27T23:03:45.843Z,34.72
2018-02-27T23:06:14.810Z,33.10
2018-02-27T23:08:42.938Z,35.95
2018-02-27T23:11:11.180Z,35.33
2018-02-27T23:13:40.076Z,38.65
2018-02-27T23:16:08.974Z,34.65
2018-02-27T23:18:37.097Z,34.15
2018-02-27T23:21:05.239Z,35.97
2018-02-27T23:23:33.382Z,36.70
2018-02-27T23:26:05.222Z,30.12
2018-02-27T23:28:35.963Z,33.67
2018-02-27T23:31:04.938Z,34.22
2018-02-27T23:33:33.153Z,37.42
2018-02-27T23:36:01.275Z,38.65
2018-02-27T23:38:29.452Z,36.17
2018-02-27T23:40:57.564Z,34.92
2018-02-27T23:43:26.320Z,34.45
2018-02-27T23:45:54.454Z,40.80
2018-02-27T23:48:22.597Z,37.72
2018-02-27T23:50:50.732Z,38.83
2018-02-27T23:53:18.882Z,39.65
2018-02-27T23:55:47.009Z,37.53
2018-02-27T23:58:15.183Z,38.92
